sensor_id;sensor_type;location;lat;lon;timestamp;P1;durP1;ratioP1;P2;durP2;ratioP2
43819;SDS011;67762;52.476;6.046;2023-03-01T01:09:23;1999.90;;;999.90;;
43819;SDS011;67762;52.476;6.046;2023-03-01T01:11:50;1999.90;;;999.90;;
43819;SDS011;67762;52.476;6.046;2023-03-01T01:14:17;1999.90;;;999.90;;
43819;SDS011;67762;52.476;6.046;2023-03-01T01:16:43;1999.90;;;999.90;;
43819;SDS011;67762;52.476;6.046;2023-03-01T01:19:10;1999.90;;;999.90;;
43819;SDS011;67762;52.476;6.046;2023-03-01T01:21:36;1999.90;;;999.90;;
43819;SDS011;67762;52.476;6.046;2023-03-01T01:24:03;1999.90;;;999.90;;
43819;SDS011;67762;52.476;6.046;2023-03-01T01:26:32;1999.90;;;999.90;;
43819;SDS011;67762;52.476;6.046;2023-03-01T01:28:59;1999.90;;;999.90;;
43819;SDS011;67762;52.476;6.046;2023-03-01T01:31:26;1999.90;;;999.90;;
43819;SDS011;67762;52.476;6.046;2023-03-01T01:33:53;1999.90;;;999.90;;
43819;SDS011;67762;52.476;6.046;2023-03-01T01:36:19;1999.90;;;999.90;;
43819;SDS011;67762;52.476;6.046;2023-03-01T01:38:45;1999.90;;;999.90;;
43819;SDS011;67762;52.476;6.046;2023-03-01T01:41:13;1999.90;;;999.90;;
43819;SDS011;67762;52.476;6.046;2023-03-01T01:43:47;1999.90;;;999.90;;
43819;SDS011;67762;52.476;6.046;2023-03-01T01:46:33;1999.90;;;999.90;;
43819;SDS011;67762;52.476;6.046;2023-03-01T01:49:03;1999.90;;;999.90;;
43819;SDS011;67762;52.476;6.046;2023-03-01T01:51:34;1999.90;;;999.90;;
43819;SDS011;67762;52.476;6.046;2023-03-01T01:54:09;1999.90;;;999.90;;
43819;SDS011;67762;52.476;6.046;2023-03-01T01:56:39;1999.90;;;999.90;;
43819;SDS011;67762;52.476;6.046;2023-03-01T01:59:09;1999.90;;;999.90;;
43819;SDS011;67762;52.476;6.046;2023-03-01T02:01:35;1999.90;;;999.90;;
43819;SDS011;67762;52.476;6.046;2023-03-01T02:04:00;1999.90;;;999.90;;
43819;SDS011;67762;52.476;6.046;2023-03-01T02:06:44;1999.90;;;999.90;;
43819;SDS011;67762;52.476;6.046;2023-03-01T02:09:51;1999.90;;;999.90;;
43819;SDS011;67762;52.476;6.046;2023-03-01T02:12:19;1999.90;;;999.90;;
43819;SDS011;67762;52.476;6.046;2023-03-01T02:14:49;1999.90;;;999.90;;
43819;SDS011;67762;52.476;6.046;2023-03-01T02:17:16;1999.90;;;999.90;;
43819;SDS011;67762;52.476;6.046;2023-03-01T02:25:08;1999.90;;;999.90;;
43819;SDS011;67762;52.476;6.046;2023-03-01T02:30:13;1999.90;;;999.90;;
43819;SDS011;67762;52.476;6.046;2023-03-01T02:32:42;1999.90;;;999.90;;
43819;SDS011;67762;52.476;6.046;2023-03-01T02:35:09;1999.90;;;999.90;;
43819;SDS011;67762;52.476;6.046;2023-03-01T02:37:37;1999.90;;;999.90;;
43819;SDS011;67762;52.476;6.046;2023-03-01T02:40:05;1999.90;;;999.90;;
43819;SDS011;67762;52.476;6.046;2023-03-01T02:42:40;1999.90;;;999.90;;
43819;SDS011;67762;52.476;6.046;2023-03-01T02:45:14;1999.90;;;999.90;;
43819;SDS011;67762;52.476;6.046;2023-03-01T02:47:40;1999.90;;;999.90;;
43819;SDS011;67762;52.476;6.046;2023-03-01T02:50:51;1999.90;;;999.90;;
43819;SDS011;67762;52.476;6.046;2023-03-01T02:55:26;1999.90;;;999.90;;
43819;SDS011;67762;52.476;6.046;2023-03-01T02:57:53;1999.90;;;999.90;;
43819;SDS011;67762;52.476;6.046;2023-03-01T03:00:22;1999.90;;;999.90;;
43819;SDS011;67762;52.476;6.046;2023-03-01T03:02:52;1999.90;;;999.90;;
43819;SDS011;67762;52.476;6.046;2023-03-01T03:05:23;1999.90;;;999.90;;
43819;SDS011;67762;52.476;6.046;2023-03-01T03:07:56;1999.90;;;999.90;;
43819;SDS011;67762;52.476;6.046;2023-03-01T03:10:28;1999.90;;;999.90;;
43819;SDS011;67762;52.476;6.046;2023-03-01T03:13:05;1999.90;;;999.90;;
43819;SDS011;67762;52.476;6.046;2023-03-01T03:15:33;1999.90;;;999.90;;
43819;SDS011;67762;52.476;6.046;2023-03-01T03:18:03;1999.90;;;999.90;;
43819;SDS011;67762;52.476;6.046;2023-03-01T03:20:32;1999.90;;;999.90;;
43819;SDS011;67762;52.476;6.046;2023-03-01T03:22:58;1999.90;;;999.90;;
43819;SDS011;67762;52.476;6.046;2023-03-01T03:25:24;1999.90;;;999.90;;
43819;SDS011;67762;52.476;6.046;2023-03-01T03:27:51;1999.90;;;999.90;;
43819;SDS011;67762;52.476;6.046;2023-03-01T03:30:22;1999.90;;;999.90;;
43819;SDS011;67762;52.476;6.046;2023-03-01T03:32:55;1999.90;;;999.90;;
43819;SDS011;67762;52.476;6.046;2023-03-01T03:35:26;1999.90;;;999.90;;
43819;SDS011;67762;52.476;6.046;2023-03-01T03:40:35;1999.90;;;999.90;;
43819;SDS011;67762;52.476;6.046;2023-03-01T03:43:06;1999.90;;;999.90;;
43819;SDS011;67762;52.476;6.046;2023-03-01T03:45:34;1999.90;;;999.90;;
43819;SDS011;67762;52.476;6.046;2023-03-01T03:48:01;1999.90;;;999.90;;
43819;SDS011;67762;52.476;6.046;2023-03-01T03:50:28;1999.90;;;999.90;;
43819;SDS011;67762;52.476;6.046;2023-03-01T03:52:54;1999.90;;;999.90;;
43819;SDS011;67762;52.476;6.046;2023-03-01T03:55:20;1999.90;;;999.90;;
43819;SDS011;67762;52.476;6.046;2023-03-01T03:57:47;1999.90;;;999.90;;
43819;SDS011;67762;52.476;6.046;2023-03-01T04:00:20;1999.90;;;999.90;;
43819;SDS011;67762;52.476;6.046;2023-03-01T04:02:47;1999.90;;;999.90;;
43819;SDS011;67762;52.476;6.046;2023-03-01T04:05:14;1999.90;;;999.90;;
43819;SDS011;67762;52.476;6.046;2023-03-01T04:07:41;1999.90;;;999.90;;
43819;SDS011;67762;52.476;6.046;2023-03-01T04:10:09;1999.90;;;999.90;;
43819;SDS011;67762;52.476;6.046;2023-03-01T04:12:36;1999.90;;;999.90;;
43819;SDS011;67762;52.476;6.046;2023-03-01T04:15:02;1999.90;;;999.90;;
43819;SDS011;67762;52.476;6.046;2023-03-01T04:17:47;1999.90;;;999.90;;
43819;SDS011;67762;52.476;6.046;2023-03-01T04:22:43;1999.90;;;999.90;;
43819;SDS011;67762;52.476;6.046;2023-03-01T04:25:12;1999.90;;;999.90;;
43819;SDS011;67762;52.476;6.046;2023-03-01T04:27:39;1999.90;;;999.90;;
43819;SDS011;67762;52.476;6.046;2023-03-01T04:30:06;1999.90;;;999.90;;
43819;SDS011;67762;52.476;6.046;2023-03-01T04:32:32;1999.90;;;999.90;;
43819;SDS011;67762;52.476;6.046;2023-03-01T04:34:58;1999.90;;;999.90;;
43819;SDS011;67762;52.476;6.046;2023-03-01T04:37:24;1999.90;;;999.90;;
43819;SDS011;67762;52.476;6.046;2023-03-01T04:39:50;1999.90;;;999.90;;
43819;SDS011;67762;52.476;6.046;2023-03-01T04:42:17;1999.90;;;999.90;;
43819;SDS011;67762;52.476;6.046;2023-03-01T04:44:43;1999.90;;;999.90;;
43819;SDS011;67762;52.476;6.046;2023-03-01T04:47:09;1999.90;;;999.90;;
43819;SDS011;67762;52.476;6.046;2023-03-01T04:49:35;1999.90;;;999.90;;
43819;SDS011;67762;52.476;6.046;2023-03-01T04:52:01;1999.90;;;999.90;;
43819;SDS011;67762;52.476;6.046;2023-03-01T04:54:29;1999.90;;;999.90;;
43819;SDS011;67762;52.476;6.046;2023-03-01T04:56:56;1999.90;;;999.90;;
43819;SDS011;67762;52.476;6.046;2023-03-01T04:59:21;1999.90;;;999.90;;
43819;SDS011;67762;52.476;6.046;2023-03-01T05:01:48;1999.90;;;999.90;;
43819;SDS011;67762;52.476;6.046;2023-03-01T05:04:14;1999.90;;;999.90;;
43819;SDS011;67762;52.476;6.046;2023-03-01T05:06:40;1999.90;;;999.90;;
43819;SDS011;67762;52.476;6.046;2023-03-01T05:09:06;1999.90;;;999.90;;
43819;SDS011;67762;52.476;6.046;2023-03-01T05:11:31;1999.90;;;999.90;;
43819;SDS011;67762;52.476;6.046;2023-03-01T05:14:01;1999.90;;;999.90;;
43819;SDS011;67762;52.476;6.046;2023-03-01T05:16:28;1999.90;;;999.90;;
43819;SDS011;67762;52.476;6.046;2023-03-01T05:18:55;1999.90;;;999.90;;
43819;SDS011;67762;52.476;6.046;2023-03-01T05:21:21;1999.90;;;999.90;;
43819;SDS011;67762;52.476;6.046;2023-03-01T05:23:47;1999.90;;;999.90;;
43819;SDS011;67762;52.476;6.046;2023-03-01T05:26:13;1999.90;;;999.90;;
43819;SDS011;67762;52.476;6.046;2023-03-01T05:28:40;1999.90;;;999.90;;
43819;SDS011;67762;52.476;6.046;2023-03-01T05:31:06;1999.90;;;999.90;;
43819;SDS011;67762;52.476;6.046;2023-03-01T05:33:40;1999.90;;;999.90;;
43819;SDS011;67762;52.476;6.046;2023-03-01T05:36:07;1999.90;;;999.90;;
43819;SDS011;67762;52.476;6.046;2023-03-01T05:38:34;1999.90;;;999.90;;
43819;SDS011;67762;52.476;6.046;2023-03-01T05:41:00;1999.90;;;999.90;;
43819;SDS011;67762;52.476;6.046;2023-03-01T05:43:26;1999.90;;;999.90;;
43819;SDS011;67762;52.476;6.046;2023-03-01T05:45:57;1999.90;;;999.90;;
43819;SDS011;67762;52.476;6.046;2023-03-01T05:48:23;1999.90;;;999.90;;
43819;SDS011;67762;52.476;6.046;2023-03-01T05:50:48;1999.90;;;999.90;;
43819;SDS011;67762;52.476;6.046;2023-03-01T05:53:18;1999.90;;;999.90;;
43819;SDS011;67762;52.476;6.046;2023-03-01T05:55:46;1999.90;;;999.90;;
43819;SDS011;67762;52.476;6.046;2023-03-01T05:58:13;1999.90;;;999.90;;
43819;SDS011;67762;52.476;6.046;2023-03-01T06:00:42;1999.90;;;999.90;;
43819;SDS011;67762;52.476;6.046;2023-03-01T06:03:10;1999.90;;;999.90;;
43819;SDS011;67762;52.476;6.046;2023-03-01T06:05:37;1999.90;;;999.90;;
43819;SDS011;67762;52.476;6.046;2023-03-01T06:08:04;1999.90;;;999.90;;
43819;SDS011;67762;52.476;6.046;2023-03-01T06:10:30;1999.90;;;999.90;;
43819;SDS011;67762;52.476;6.046;2023-03-01T06:12:56;1999.90;;;999.90;;
43819;SDS011;67762;52.476;6.046;2023-03-01T06:15:22;1999.90;;;999.90;;
43819;SDS011;67762;52.476;6.046;2023-03-01T06:17:49;1999.90;;;999.90;;
43819;SDS011;67762;52.476;6.046;2023-03-01T06:20:16;1999.90;;;999.90;;
43819;SDS011;67762;52.476;6.046;2023-03-01T06:22:43;1999.90;;;999.90;;
43819;SDS011;67762;52.476;6.046;2023-03-01T06:25:10;1999.90;;;999.90;;
43819;SDS011;67762;52.476;6.046;2023-03-01T06:27:37;1999.90;;;999.90;;
43819;SDS011;67762;52.476;6.046;2023-03-01T06:30:04;1999.90;;;999.90;;
43819;SDS011;67762;52.476;6.046;2023-03-01T06:32:30;1999.90;;;999.90;;
43819;SDS011;67762;52.476;6.046;2023-03-01T06:34:56;1999.90;;;999.90;;
43819;SDS011;67762;52.476;6.046;2023-03-01T06:37:24;1999.90;;;999.90;;
43819;SDS011;67762;52.476;6.046;2023-03-01T06:39:50;1999.90;;;999.90;;
43819;SDS011;67762;52.476;6.046;2023-03-01T06:42:16;1999.90;;;999.90;;
43819;SDS011;67762;52.476;6.046;2023-03-01T06:44:41;1999.90;;;999.90;;
43819;SDS011;67762;52.476;6.046;2023-03-01T06:47:07;1999.90;;;999.90;;
43819;SDS011;67762;52.476;6.046;2023-03-01T06:49:33;1999.90;;;999.90;;
43819;SDS011;67762;52.476;6.046;2023-03-01T06:51:58;1999.90;;;999.90;;
43819;SDS011;67762;52.476;6.046;2023-03-01T06:54:24;1999.90;;;999.90;;
43819;SDS011;67762;52.476;6.046;2023-03-01T06:56:50;1999.90;;;999.90;;
43819;SDS011;67762;52.476;6.046;2023-03-01T06:59:15;1999.90;;;999.90;;
43819;SDS011;67762;52.476;6.046;2023-03-01T07:01:42;1999.90;;;999.90;;
43819;SDS011;67762;52.476;6.046;2023-03-01T07:04:08;1999.90;;;999.90;;
43819;SDS011;67762;52.476;6.046;2023-03-01T07:06:35;1999.90;;;999.90;;
43819;SDS011;67762;52.476;6.046;2023-03-01T07:09:00;1999.90;;;999.90;;
43819;SDS011;67762;52.476;6.046;2023-03-01T07:11:26;1999.90;;;999.90;;
43819;SDS011;67762;52.476;6.046;2023-03-01T07:13:52;1999.90;;;999.90;;
43819;SDS011;67762;52.476;6.046;2023-03-01T07:16:17;1999.90;;;999.90;;
43819;SDS011;67762;52.476;6.046;2023-03-01T07:18:43;1999.90;;;999.90;;
43819;SDS011;67762;52.476;6.046;2023-03-01T07:21:09;1999.90;;;999.90;;
43819;SDS011;67762;52.476;6.046;2023-03-01T07:23:37;1999.90;;;999.90;;
43819;SDS011;67762;52.476;6.046;2023-03-01T07:26:03;1999.90;;;999.90;;
43819;SDS011;67762;52.476;6.046;2023-03-01T07:28:29;1999.90;;;999.90;;
43819;SDS011;67762;52.476;6.046;2023-03-01T07:30:59;1999.90;;;999.90;;
43819;SDS011;67762;52.476;6.046;2023-03-01T07:33:26;1513.40;;;762.38;;
43819;SDS011;67762;52.476;6.046;2023-03-01T07:35:58;1999.90;;;999.90;;
43819;SDS011;67762;52.476;6.046;2023-03-01T07:38:26;59.63;;;54.95;;
43819;SDS011;67762;52.476;6.046;2023-03-01T07:40:53;439.27;;;87.78;;
43819;SDS011;67762;52.476;6.046;2023-03-01T07:43:19;69.93;;;64.40;;
43819;SDS011;67762;52.476;6.046;2023-03-01T07:45:45;69.63;;;64.10;;
43819;SDS011;67762;52.476;6.046;2023-03-01T07:48:11;72.40;;;66.88;;
43819;SDS011;67762;52.476;6.046;2023-03-01T07:50:37;69.32;;;64.18;;
43819;SDS011;67762;52.476;6.046;2023-03-01T07:53:02;68.30;;;63.22;;
43819;SDS011;67762;52.476;6.046;2023-03-01T07:55:28;71.22;;;65.93;;
43819;SDS011;67762;52.476;6.046;2023-03-01T07:57:54;64.40;;;59.28;;
43819;SDS011;67762;52.476;6.046;2023-03-01T08:00:19;66.70;;;61.55;;
43819;SDS011;67762;52.476;6.046;2023-03-01T08:02:45;67.57;;;62.17;;
43819;SDS011;67762;52.476;6.046;2023-03-01T08:05:11;65.00;;;60.03;;
43819;SDS011;67762;52.476;6.046;2023-03-01T08:07:37;66.25;;;60.90;;
43819;SDS011;67762;52.476;6.046;2023-03-01T08:10:03;66.40;;;61.00;;
43819;SDS011;67762;52.476;6.046;2023-03-01T08:12:29;62.55;;;57.78;;
43819;SDS011;67762;52.476;6.046;2023-03-01T08:14:55;62.20;;;57.60;;
43819;SDS011;67762;52.476;6.046;2023-03-01T08:17:22;64.50;;;59.25;;
43819;SDS011;67762;52.476;6.046;2023-03-01T08:19:48;61.40;;;56.70;;
43819;SDS011;67762;52.476;6.046;2023-03-01T08:22:13;58.38;;;53.67;;
43819;SDS011;67762;52.476;6.046;2023-03-01T08:24:39;57.05;;;52.47;;
43819;SDS011;67762;52.476;6.046;2023-03-01T08:27:04;53.08;;;48.78;;
43819;SDS011;67762;52.476;6.046;2023-03-01T08:29:31;55.53;;;51.17;;
43819;SDS011;67762;52.476;6.046;2023-03-01T08:31:57;58.40;;;53.80;;
43819;SDS011;67762;52.476;6.046;2023-03-01T08:34:23;52.28;;;47.97;;
43819;SDS011;67762;52.476;6.046;2023-03-01T08:36:49;53.97;;;49.72;;
43819;SDS011;67762;52.476;6.046;2023-03-01T08:39:17;55.38;;;50.88;;
43819;SDS011;67762;52.476;6.046;2023-03-01T08:41:44;53.10;;;49.00;;
43819;SDS011;67762;52.476;6.046;2023-03-01T08:44:12;49.85;;;45.95;;
43819;SDS011;67762;52.476;6.046;2023-03-01T08:46:42;50.38;;;46.63;;
43819;SDS011;67762;52.476;6.046;2023-03-01T08:49:13;46.28;;;42.67;;
43819;SDS011;67762;52.476;6.046;2023-03-01T08:51:40;47.97;;;44.38;;
43819;SDS011;67762;52.476;6.046;2023-03-01T08:54:09;44.53;;;41.25;;
43819;SDS011;67762;52.476;6.046;2023-03-01T08:56:37;43.22;;;39.75;;
43819;SDS011;67762;52.476;6.046;2023-03-01T08:59:03;42.22;;;39.13;;
43819;SDS011;67762;52.476;6.046;2023-03-01T09:01:29;43.83;;;40.55;;
43819;SDS011;67762;52.476;6.046;2023-03-01T09:03:54;41.45;;;38.45;;
43819;SDS011;67762;52.476;6.046;2023-03-01T09:06:20;41.17;;;38.15;;
43819;SDS011;67762;52.476;6.046;2023-03-01T09:08:49;39.90;;;36.70;;
43819;SDS011;67762;52.476;6.046;2023-03-01T09:11:18;38.33;;;35.53;;
43819;SDS011;67762;52.476;6.046;2023-03-01T09:13:46;35.28;;;32.67;;
43819;SDS011;67762;52.476;6.046;2023-03-01T09:16:14;36.30;;;33.67;;
43819;SDS011;67762;52.476;6.046;2023-03-01T09:18:42;35.35;;;32.70;;
43819;SDS011;67762;52.476;6.046;2023-03-01T09:21:10;35.00;;;32.25;;
43819;SDS011;67762;52.476;6.046;2023-03-01T09:23:39;33.58;;;31.00;;
43819;SDS011;67762;52.476;6.046;2023-03-01T09:26:07;30.67;;;28.08;;
43819;SDS011;67762;52.476;6.046;2023-03-01T09:28:34;32.80;;;30.25;;
43819;SDS011;67762;52.476;6.046;2023-03-01T09:31:02;32.13;;;29.40;;
43819;SDS011;67762;52.476;6.046;2023-03-01T09:33:29;33.45;;;30.95;;
43819;SDS011;67762;52.476;6.046;2023-03-01T09:35:59;29.90;;;27.70;;
43819;SDS011;67762;52.476;6.046;2023-03-01T09:38:30;27.52;;;25.42;;
43819;SDS011;67762;52.476;6.046;2023-03-01T09:40:55;24.70;;;22.90;;
43819;SDS011;67762;52.476;6.046;2023-03-01T09:43:24;29.42;;;27.23;;
43819;SDS011;67762;52.476;6.046;2023-03-01T09:46:03;28.63;;;26.48;;
43819;SDS011;67762;52.476;6.046;2023-03-01T09:48:33;27.67;;;25.67;;
43819;SDS011;67762;52.476;6.046;2023-03-01T09:51:08;27.17;;;25.17;;
43819;SDS011;67762;52.476;6.046;2023-03-01T09:53:41;25.40;;;23.52;;
43819;SDS011;67762;52.476;6.046;2023-03-01T10:07:27;27.70;;;25.52;;
43819;SDS011;67762;52.476;6.046;2023-03-01T10:10:04;26.73;;;24.60;;
43819;SDS011;67762;52.476;6.046;2023-03-01T10:12:36;26.65;;;24.73;;
43819;SDS011;67762;52.476;6.046;2023-03-01T10:17:36;25.70;;;23.90;;
43819;SDS011;67762;52.476;6.046;2023-03-01T10:22:50;27.00;;;25.00;;
43819;SDS011;67762;52.476;6.046;2023-03-01T10:25:23;24.27;;;22.23;;
43819;SDS011;67762;52.476;6.046;2023-03-01T10:28:10;23.95;;;22.25;;
43819;SDS011;67762;52.476;6.046;2023-03-01T10:30:45;24.83;;;23.17;;
43819;SDS011;67762;52.476;6.046;2023-03-01T10:35:42;24.13;;;22.45;;
43819;SDS011;67762;52.476;6.046;2023-03-01T10:38:09;23.60;;;21.92;;
43819;SDS011;67762;52.476;6.046;2023-03-01T10:40:51;20.27;;;18.80;;
43819;SDS011;67762;52.476;6.046;2023-03-01T10:43:27;20.25;;;18.88;;
43819;SDS011;67762;52.476;6.046;2023-03-01T10:46:21;19.08;;;17.60;;
43819;SDS011;67762;52.476;6.046;2023-03-01T10:49:17;20.13;;;18.70;;
43819;SDS011;67762;52.476;6.046;2023-03-01T10:51:48;21.25;;;19.65;;
43819;SDS011;67762;52.476;6.046;2023-03-01T10:54:20;20.60;;;19.00;;
43819;SDS011;67762;52.476;6.046;2023-03-01T10:56:50;22.33;;;20.63;;
43819;SDS011;67762;52.476;6.046;2023-03-01T10:59:37;19.98;;;18.30;;
43819;SDS011;67762;52.476;6.046;2023-03-01T11:07:52;20.02;;;18.73;;
43819;SDS011;67762;52.476;6.046;2023-03-01T11:10:20;22.42;;;20.73;;
43819;SDS011;67762;52.476;6.046;2023-03-01T11:12:48;21.85;;;20.05;;
43819;SDS011;67762;52.476;6.046;2023-03-01T11:15:20;23.40;;;21.67;;
43819;SDS011;67762;52.476;6.046;2023-03-01T11:17:52;22.42;;;20.83;;
43819;SDS011;67762;52.476;6.046;2023-03-01T11:22:58;22.83;;;21.00;;
43819;SDS011;67762;52.476;6.046;2023-03-01T11:25:37;22.07;;;20.17;;
43819;SDS011;67762;52.476;6.046;2023-03-01T11:28:07;21.88;;;20.30;;
43819;SDS011;67762;52.476;6.046;2023-03-01T11:30:40;20.80;;;19.23;;
43819;SDS011;67762;52.476;6.046;2023-03-01T11:36:08;21.98;;;20.42;;
43819;SDS011;67762;52.476;6.046;2023-03-01T11:38:41;21.35;;;19.58;;
43819;SDS011;67762;52.476;6.046;2023-03-01T11:41:18;19.85;;;18.30;;
43819;SDS011;67762;52.476;6.046;2023-03-01T11:44:00;20.52;;;18.70;;
43819;SDS011;67762;52.476;6.046;2023-03-01T11:49:00;20.35;;;18.83;;
43819;SDS011;67762;52.476;6.046;2023-03-01T11:51:54;19.08;;;17.48;;
43819;SDS011;67762;52.476;6.046;2023-03-01T12:08:58;22.33;;;20.17;;
43819;SDS011;67762;52.476;6.046;2023-03-01T12:20:21;21.33;;;19.70;;
43819;SDS011;67762;52.476;6.046;2023-03-01T12:26:20;20.20;;;18.50;;
43819;SDS011;67762;52.476;6.046;2023-03-01T12:42:45;19.40;;;17.75;;
43819;SDS011;67762;52.476;6.046;2023-03-01T12:45:29;21.10;;;19.40;;
43819;SDS011;67762;52.476;6.046;2023-03-01T12:50:54;19.83;;;18.17;;
43819;SDS011;67762;52.476;6.046;2023-03-01T12:53:26;20.53;;;18.70;;
43819;SDS011;67762;52.476;6.046;2023-03-01T12:56:00;18.58;;;17.20;;
43819;SDS011;67762;52.476;6.046;2023-03-01T13:01:18;17.35;;;16.08;;
43819;SDS011;67762;52.476;6.046;2023-03-01T13:15:37;19.65;;;17.95;;
43819;SDS011;67762;52.476;6.046;2023-03-01T13:28:52;19.42;;;17.83;;
43819;SDS011;67762;52.476;6.046;2023-03-01T13:33:49;21.15;;;19.23;;
43819;SDS011;67762;52.476;6.046;2023-03-01T13:49:36;21.08;;;19.42;;
43819;SDS011;67762;52.476;6.046;2023-03-01T13:54:49;19.63;;;18.15;;
43819;SDS011;67762;52.476;6.046;2023-03-01T13:57:19;20.85;;;19.20;;
43819;SDS011;67762;52.476;6.046;2023-03-01T13:59:49;19.13;;;17.58;;
43819;SDS011;67762;52.476;6.046;2023-03-01T14:02:15;21.60;;;19.70;;
43819;SDS011;67762;52.476;6.046;2023-03-01T14:04:41;21.27;;;19.45;;
43819;SDS011;67762;52.476;6.046;2023-03-01T14:07:18;21.42;;;19.80;;
43819;SDS011;67762;52.476;6.046;2023-03-01T14:09:47;19.02;;;17.73;;
43819;SDS011;67762;52.476;6.046;2023-03-01T14:12:32;20.00;;;18.45;;
43819;SDS011;67762;52.476;6.046;2023-03-01T14:15:06;20.17;;;18.65;;
43819;SDS011;67762;52.476;6.046;2023-03-01T14:17:40;20.60;;;19.00;;
43819;SDS011;67762;52.476;6.046;2023-03-01T14:20:20;20.40;;;18.88;;
43819;SDS011;67762;52.476;6.046;2023-03-01T14:22:48;20.25;;;18.65;;
43819;SDS011;67762;52.476;6.046;2023-03-01T14:28:02;21.95;;;19.70;;
43819;SDS011;67762;52.476;6.046;2023-03-01T14:31:02;20.15;;;18.58;;
43819;SDS011;67762;52.476;6.046;2023-03-01T14:33:29;21.05;;;19.35;;
43819;SDS011;67762;52.476;6.046;2023-03-01T14:38:44;20.63;;;19.02;;
43819;SDS011;67762;52.476;6.046;2023-03-01T14:41:18;20.45;;;18.85;;
43819;SDS011;67762;52.476;6.046;2023-03-01T14:43:47;21.95;;;20.25;;
43819;SDS011;67762;52.476;6.046;2023-03-01T14:46:36;19.55;;;17.88;;
43819;SDS011;67762;52.476;6.046;2023-03-01T14:49:05;23.20;;;21.00;;
43819;SDS011;67762;52.476;6.046;2023-03-01T14:51:36;22.20;;;20.38;;
43819;SDS011;67762;52.476;6.046;2023-03-01T14:54:25;21.83;;;20.23;;
43819;SDS011;67762;52.476;6.046;2023-03-01T14:56:54;18.63;;;17.33;;
43819;SDS011;67762;52.476;6.046;2023-03-01T14:59:25;20.25;;;18.67;;
43819;SDS011;67762;52.476;6.046;2023-03-01T15:01:51;19.25;;;17.58;;
43819;SDS011;67762;52.476;6.046;2023-03-01T15:04:20;18.83;;;17.42;;
43819;SDS011;67762;52.476;6.046;2023-03-01T15:06:49;20.70;;;18.75;;
43819;SDS011;67762;52.476;6.046;2023-03-01T15:09:16;22.85;;;21.05;;
43819;SDS011;67762;52.476;6.046;2023-03-01T15:11:43;21.23;;;19.42;;
43819;SDS011;67762;52.476;6.046;2023-03-01T15:19:55;21.52;;;19.73;;
43819;SDS011;67762;52.476;6.046;2023-03-01T15:22:21;20.05;;;18.48;;
43819;SDS011;67762;52.476;6.046;2023-03-01T15:24:50;18.90;;;17.48;;
43819;SDS011;67762;52.476;6.046;2023-03-01T15:27:17;19.58;;;17.98;;
43819;SDS011;67762;52.476;6.046;2023-03-01T15:30:00;20.90;;;18.85;;
43819;SDS011;67762;52.476;6.046;2023-03-01T15:32:33;19.30;;;17.77;;
43819;SDS011;67762;52.476;6.046;2023-03-01T15:35:33;21.90;;;20.00;;
43819;SDS011;67762;52.476;6.046;2023-03-01T15:41:32;21.27;;;19.58;;
43819;SDS011;67762;52.476;6.046;2023-03-01T15:46:52;20.77;;;18.88;;
43819;SDS011;67762;52.476;6.046;2023-03-01T15:49:39;22.38;;;20.60;;
43819;SDS011;67762;52.476;6.046;2023-03-01T15:54:55;22.83;;;21.00;;
43819;SDS011;67762;52.476;6.046;2023-03-01T15:57:22;20.15;;;18.45;;
43819;SDS011;67762;52.476;6.046;2023-03-01T15:59:48;19.05;;;17.35;;
43819;SDS011;67762;52.476;6.046;2023-03-01T16:02:14;21.63;;;19.85;;
43819;SDS011;67762;52.476;6.046;2023-03-01T16:04:40;19.83;;;18.23;;
43819;SDS011;67762;52.476;6.046;2023-03-01T16:07:05;20.30;;;18.70;;
43819;SDS011;67762;52.476;6.046;2023-03-01T16:09:31;20.42;;;18.83;;
43819;SDS011;67762;52.476;6.046;2023-03-01T16:11:57;20.33;;;18.40;;
43819;SDS011;67762;52.476;6.046;2023-03-01T16:14:22;20.20;;;18.48;;
43819;SDS011;67762;52.476;6.046;2023-03-01T16:16:48;19.73;;;18.02;;
43819;SDS011;67762;52.476;6.046;2023-03-01T16:19:14;21.15;;;19.52;;
43819;SDS011;67762;52.476;6.046;2023-03-01T16:21:40;20.80;;;19.08;;
43819;SDS011;67762;52.476;6.046;2023-03-01T16:24:08;22.00;;;20.13;;
43819;SDS011;67762;52.476;6.046;2023-03-01T16:26:35;22.35;;;20.02;;
43819;SDS011;67762;52.476;6.046;2023-03-01T16:29:02;20.45;;;18.67;;
43819;SDS011;67762;52.476;6.046;2023-03-01T16:31:29;20.77;;;18.80;;
43819;SDS011;67762;52.476;6.046;2023-03-01T16:33:55;21.70;;;19.90;;
43819;SDS011;67762;52.476;6.046;2023-03-01T16:36:21;20.73;;;18.92;;
43819;SDS011;67762;52.476;6.046;2023-03-01T16:38:49;23.35;;;21.15;;
43819;SDS011;67762;52.476;6.046;2023-03-01T16:41:17;22.85;;;20.90;;
43819;SDS011;67762;52.476;6.046;2023-03-01T16:43:45;25.15;;;22.95;;
43819;SDS011;67762;52.476;6.046;2023-03-01T16:48:42;26.95;;;24.38;;
43819;SDS011;67762;52.476;6.046;2023-03-01T16:51:08;28.73;;;26.13;;
43819;SDS011;67762;52.476;6.046;2023-03-01T16:53:34;27.77;;;25.35;;
43819;SDS011;67762;52.476;6.046;2023-03-01T16:56:08;26.92;;;24.17;;
43819;SDS011;67762;52.476;6.046;2023-03-01T16:58:35;28.45;;;26.00;;
43819;SDS011;67762;52.476;6.046;2023-03-01T17:01:06;29.02;;;26.67;;
43819;SDS011;67762;52.476;6.046;2023-03-01T17:03:41;30.25;;;27.75;;
43819;SDS011;67762;52.476;6.046;2023-03-01T17:06:08;31.30;;;28.17;;
43819;SDS011;67762;52.476;6.046;2023-03-01T17:08:37;30.55;;;27.52;;
43819;SDS011;67762;52.476;6.046;2023-03-01T17:11:07;31.15;;;28.70;;
43819;SDS011;67762;52.476;6.046;2023-03-01T17:16:06;35.00;;;32.33;;
43819;SDS011;67762;52.476;6.046;2023-03-01T17:18:34;35.75;;;32.75;;
43819;SDS011;67762;52.476;6.046;2023-03-01T17:20:59;39.65;;;36.28;;
43819;SDS011;67762;52.476;6.046;2023-03-01T17:23:26;39.20;;;35.78;;
43819;SDS011;67762;52.476;6.046;2023-03-01T17:25:53;40.95;;;37.13;;
43819;SDS011;67762;52.476;6.046;2023-03-01T17:28:24;42.75;;;38.95;;
43819;SDS011;67762;52.476;6.046;2023-03-01T17:30:51;42.15;;;38.83;;
43819;SDS011;67762;52.476;6.046;2023-03-01T17:33:17;44.38;;;40.38;;
43819;SDS011;67762;52.476;6.046;2023-03-01T17:35:43;50.10;;;45.78;;
43819;SDS011;67762;52.476;6.046;2023-03-01T17:38:12;48.72;;;43.90;;
43819;SDS011;67762;52.476;6.046;2023-03-01T17:40:39;49.80;;;45.42;;
43819;SDS011;67762;52.476;6.046;2023-03-01T17:43:06;48.47;;;44.67;;
43819;SDS011;67762;52.476;6.046;2023-03-01T17:45:32;51.38;;;47.35;;
43819;SDS011;67762;52.476;6.046;2023-03-01T17:48:01;51.10;;;46.75;;
43819;SDS011;67762;52.476;6.046;2023-03-01T17:50:27;52.95;;;48.65;;
43819;SDS011;67762;52.476;6.046;2023-03-01T17:52:53;50.97;;;46.70;;
43819;SDS011;67762;52.476;6.046;2023-03-01T17:55:20;54.22;;;49.65;;
43819;SDS011;67762;52.476;6.046;2023-03-01T17:57:46;54.95;;;50.35;;
43819;SDS011;67762;52.476;6.046;2023-03-01T18:00:13;59.42;;;54.75;;
43819;SDS011;67762;52.476;6.046;2023-03-01T18:02:40;55.47;;;50.80;;
43819;SDS011;67762;52.476;6.046;2023-03-01T18:05:06;57.75;;;53.05;;
43819;SDS011;67762;52.476;6.046;2023-03-01T18:07:32;55.30;;;51.30;;